sensor_id;sensor_type;location;lat;lon;timestamp;P1;durP1;ratioP1;P2;durP2;ratioP2
45039;SDS011;30778;53.574;7.770;2023-09-18T00:00:06;14.55;;;11.40;;
45039;SDS011;30778;53.574;7.770;2023-09-18T00:02:37;11.88;;;10.55;;
45039;SDS011;30778;53.574;7.770;2023-09-18T00:05:03;14.88;;;10.68;;
45039;SDS011;30778;53.574;7.770;2023-09-18T00:07:29;12.57;;;9.77;;
45039;SDS011;30778;53.574;7.770;2023-09-18T00:09:54;14.60;;;10.60;;
45039;SDS011;30778;53.574;7.770;2023-09-18T00:12:22;11.63;;;10.02;;
45039;SDS011;30778;53.574;7.770;2023-09-18T00:14:48;12.70;;;10.55;;
45039;SDS011;30778;53.574;7.770;2023-09-18T00:17:18;13.32;;;11.35;;
45039;SDS011;30778;53.574;7.770;2023-09-18T00:19:44;10.43;;;9.32;;
45039;SDS011;30778;53.574;7.770;2023-09-18T00:22:15;11.37;;;10.03;;
45039;SDS011;30778;53.574;7.770;2023-09-18T00:24:40;12.65;;;10.15;;
45039;SDS011;30778;53.574;7.770;2023-09-18T00:27:06;11.77;;;9.40;;
45039;SDS011;30778;53.574;7.770;2023-09-18T00:29:36;11.03;;;8.83;;
45039;SDS011;30778;53.574;7.770;2023-09-18T00:32:04;9.95;;;8.98;;
45039;SDS011;30778;53.574;7.770;2023-09-18T00:34:30;13.32;;;10.25;;
45039;SDS011;30778;53.574;7.770;2023-09-18T00:36:57;11.27;;;10.07;;
45039;SDS011;30778;53.574;7.770;2023-09-18T00:39:24;11.43;;;10.25;;
45039;SDS011;30778;53.574;7.770;2023-09-18T00:41:52;11.77;;;9.80;;
45039;SDS011;30778;53.574;7.770;2023-09-18T00:44:28;11.10;;;9.93;;
45039;SDS011;30778;53.574;7.770;2023-09-18T00:46:54;14.50;;;10.48;;
45039;SDS011;30778;53.574;7.770;2023-09-18T00:49:22;17.50;;;11.00;;
45039;SDS011;30778;53.574;7.770;2023-09-18T00:51:49;16.20;;;12.10;;
45039;SDS011;30778;53.574;7.770;2023-09-18T00:54:16;12.25;;;11.05;;
45039;SDS011;30778;53.574;7.770;2023-09-18T00:56:47;16.35;;;11.05;;
45039;SDS011;30778;53.574;7.770;2023-09-18T00:59:13;12.30;;;11.00;;
45039;SDS011;30778;53.574;7.770;2023-09-18T01:01:42;15.00;;;11.52;;
45039;SDS011;30778;53.574;7.770;2023-09-18T01:04:11;15.15;;;11.80;;
45039;SDS011;30778;53.574;7.770;2023-09-18T01:06:40;17.15;;;12.05;;
45039;SDS011;30778;53.574;7.770;2023-09-18T01:09:06;12.57;;;11.27;;
45039;SDS011;30778;53.574;7.770;2023-09-18T01:11:51;18.48;;;13.40;;
45039;SDS011;30778;53.574;7.770;2023-09-18T01:14:48;14.85;;;13.05;;
45039;SDS011;30778;53.574;7.770;2023-09-18T01:17:20;18.60;;;13.85;;
45039;SDS011;30778;53.574;7.770;2023-09-18T01:19:47;18.67;;;13.98;;
45039;SDS011;30778;53.574;7.770;2023-09-18T01:22:13;17.15;;;13.93;;
45039;SDS011;30778;53.574;7.770;2023-09-18T01:24:40;21.45;;;15.35;;
45039;SDS011;30778;53.574;7.770;2023-09-18T01:27:10;17.30;;;15.00;;
45039;SDS011;30778;53.574;7.770;2023-09-18T01:29:42;18.02;;;14.27;;
45039;SDS011;30778;53.574;7.770;2023-09-18T01:32:08;18.27;;;14.77;;
45039;SDS011;30778;53.574;7.770;2023-09-18T01:34:35;18.88;;;15.18;;
45039;SDS011;30778;53.574;7.770;2023-09-18T01:37:05;21.40;;;14.70;;
45039;SDS011;30778;53.574;7.770;2023-09-18T01:39:32;18.58;;;15.27;;
45039;SDS011;30778;53.574;7.770;2023-09-18T01:41:59;19.17;;;15.10;;
45039;SDS011;30778;53.574;7.770;2023-09-18T01:44:27;15.77;;;13.63;;
45039;SDS011;30778;53.574;7.770;2023-09-18T01:46:59;16.55;;;13.57;;
45039;SDS011;30778;53.574;7.770;2023-09-18T01:51:57;18.30;;;13.73;;
45039;SDS011;30778;53.574;7.770;2023-09-18T01:54:23;19.70;;;13.93;;
45039;SDS011;30778;53.574;7.770;2023-09-18T01:56:51;17.33;;;12.98;;
45039;SDS011;30778;53.574;7.770;2023-09-18T01:59:18;17.60;;;14.32;;
45039;SDS011;30778;53.574;7.770;2023-09-18T02:01:45;19.30;;;14.18;;
45039;SDS011;30778;53.574;7.770;2023-09-18T02:04:11;16.85;;;14.43;;
45039;SDS011;30778;53.574;7.770;2023-09-18T02:06:37;22.42;;;15.75;;
45039;SDS011;30778;53.574;7.770;2023-09-18T02:09:03;20.98;;;14.98;;
45039;SDS011;30778;53.574;7.770;2023-09-18T02:11:41;21.48;;;14.23;;
45039;SDS011;30778;53.574;7.770;2023-09-18T02:14:08;21.70;;;15.27;;
45039;SDS011;30778;53.574;7.770;2023-09-18T02:16:35;21.92;;;15.98;;
45039;SDS011;30778;53.574;7.770;2023-09-18T02:19:02;24.38;;;16.27;;
45039;SDS011;30778;53.574;7.770;2023-09-18T02:21:31;18.25;;;14.85;;
45039;SDS011;30778;53.574;7.770;2023-09-18T02:23:56;28.77;;;17.45;;
45039;SDS011;30778;53.574;7.770;2023-09-18T02:26:23;22.35;;;16.27;;
45039;SDS011;30778;53.574;7.770;2023-09-18T02:28:51;22.80;;;15.40;;
45039;SDS011;30778;53.574;7.770;2023-09-18T02:31:21;20.13;;;14.05;;
45039;SDS011;30778;53.574;7.770;2023-09-18T02:33:48;20.95;;;15.52;;
45039;SDS011;30778;53.574;7.770;2023-09-18T02:36:13;20.48;;;14.82;;
45039;SDS011;30778;53.574;7.770;2023-09-18T02:38:41;19.65;;;14.85;;
45039;SDS011;30778;53.574;7.770;2023-09-18T02:41:08;22.60;;;16.15;;
45039;SDS011;30778;53.574;7.770;2023-09-18T02:43:33;21.42;;;16.30;;
45039;SDS011;30778;53.574;7.770;2023-09-18T02:45:59;20.52;;;15.55;;
45039;SDS011;30778;53.574;7.770;2023-09-18T02:48:26;22.45;;;15.52;;
45039;SDS011;30778;53.574;7.770;2023-09-18T02:50:55;24.45;;;17.35;;
45039;SDS011;30778;53.574;7.770;2023-09-18T02:53:21;24.40;;;16.83;;
45039;SDS011;30778;53.574;7.770;2023-09-18T02:55:48;24.75;;;17.48;;
45039;SDS011;30778;53.574;7.770;2023-09-18T02:58:15;26.08;;;18.63;;
45039;SDS011;30778;53.574;7.770;2023-09-18T03:00:43;23.23;;;16.63;;
45039;SDS011;30778;53.574;7.770;2023-09-18T03:03:10;27.73;;;18.92;;
45039;SDS011;30778;53.574;7.770;2023-09-18T03:05:36;28.35;;;17.55;;
45039;SDS011;30778;53.574;7.770;2023-09-18T03:08:06;25.35;;;17.48;;
45039;SDS011;30778;53.574;7.770;2023-09-18T03:10:35;25.40;;;17.17;;
45039;SDS011;30778;53.574;7.770;2023-09-18T03:13:03;29.05;;;19.10;;
45039;SDS011;30778;53.574;7.770;2023-09-18T03:15:29;27.80;;;19.55;;
45039;SDS011;30778;53.574;7.770;2023-09-18T03:17:57;24.92;;;17.95;;
45039;SDS011;30778;53.574;7.770;2023-09-18T03:20:23;26.20;;;18.20;;
45039;SDS011;30778;53.574;7.770;2023-09-18T03:22:53;25.13;;;17.20;;
45039;SDS011;30778;53.574;7.770;2023-09-18T03:25:20;23.88;;;16.60;;
45039;SDS011;30778;53.574;7.770;2023-09-18T03:27:47;23.13;;;16.55;;
45039;SDS011;30778;53.574;7.770;2023-09-18T03:30:13;23.65;;;16.67;;
45039;SDS011;30778;53.574;7.770;2023-09-18T03:32:41;23.75;;;16.00;;
45039;SDS011;30778;53.574;7.770;2023-09-18T03:35:10;21.17;;;16.40;;
45039;SDS011;30778;53.574;7.770;2023-09-18T03:37:53;21.83;;;16.33;;
45039;SDS011;30778;53.574;7.770;2023-09-18T03:40:23;20.77;;;16.05;;
45039;SDS011;30778;53.574;7.770;2023-09-18T03:42:49;21.30;;;16.23;;
45039;SDS011;30778;53.574;7.770;2023-09-18T03:45:15;20.05;;;15.20;;
45039;SDS011;30778;53.574;7.770;2023-09-18T03:47:48;23.70;;;15.23;;
45039;SDS011;30778;53.574;7.770;2023-09-18T03:50:15;23.15;;;15.38;;
45039;SDS011;30778;53.574;7.770;2023-09-18T03:52:41;21.20;;;14.60;;
45039;SDS011;30778;53.574;7.770;2023-09-18T03:55:07;22.88;;;14.95;;
45039;SDS011;30778;53.574;7.770;2023-09-18T03:57:36;20.17;;;15.35;;
45039;SDS011;30778;53.574;7.770;2023-09-18T04:00:08;20.42;;;15.13;;
45039;SDS011;30778;53.574;7.770;2023-09-18T04:02:40;19.30;;;15.38;;
45039;SDS011;30778;53.574;7.770;2023-09-18T04:05:05;21.17;;;15.05;;
45039;SDS011;30778;53.574;7.770;2023-09-18T04:07:32;22.05;;;14.50;;
45039;SDS011;30778;53.574;7.770;2023-09-18T04:10:02;20.23;;;14.05;;
45039;SDS011;30778;53.574;7.770;2023-09-18T04:12:30;20.20;;;14.68;;
45039;SDS011;30778;53.574;7.770;2023-09-18T04:14:59;19.50;;;13.45;;
45039;SDS011;30778;53.574;7.770;2023-09-18T04:17:25;16.88;;;13.57;;
45039;SDS011;30778;53.574;7.770;2023-09-18T04:19:52;19.48;;;13.90;;
45039;SDS011;30778;53.574;7.770;2023-09-18T04:22:29;16.02;;;13.23;;
45039;SDS011;30778;53.574;7.770;2023-09-18T04:24:54;17.85;;;12.65;;
45039;SDS011;30778;53.574;7.770;2023-09-18T04:27:20;22.02;;;13.65;;
45039;SDS011;30778;53.574;7.770;2023-09-18T04:29:46;23.02;;;14.38;;
45039;SDS011;30778;53.574;7.770;2023-09-18T04:32:12;18.02;;;13.70;;
45039;SDS011;30778;53.574;7.770;2023-09-18T04:34:38;17.45;;;12.82;;
45039;SDS011;30778;53.574;7.770;2023-09-18T04:37:04;17.73;;;11.48;;
45039;SDS011;30778;53.574;7.770;2023-09-18T04:39:30;14.48;;;12.52;;
45039;SDS011;30778;53.574;7.770;2023-09-18T04:42:00;16.58;;;12.38;;
45039;SDS011;30778;53.574;7.770;2023-09-18T04:44:29;19.83;;;13.07;;
45039;SDS011;30778;53.574;7.770;2023-09-18T04:46:55;16.05;;;12.75;;
45039;SDS011;30778;53.574;7.770;2023-09-18T04:49:23;22.27;;;11.95;;
45039;SDS011;30778;53.574;7.770;2023-09-18T04:51:49;16.15;;;12.13;;
45039;SDS011;30778;53.574;7.770;2023-09-18T04:54:16;27.13;;;14.95;;
45039;SDS011;30778;53.574;7.770;2023-09-18T04:56:49;20.90;;;12.55;;
45039;SDS011;30778;53.574;7.770;2023-09-18T04:59:15;16.13;;;10.93;;
45039;SDS011;30778;53.574;7.770;2023-09-18T05:01:41;14.52;;;11.02;;
45039;SDS011;30778;53.574;7.770;2023-09-18T05:04:10;16.77;;;10.52;;
45039;SDS011;30778;53.574;7.770;2023-09-18T05:06:36;18.17;;;11.65;;
45039;SDS011;30778;53.574;7.770;2023-09-18T05:09:05;15.73;;;10.75;;
45039;SDS011;30778;53.574;7.770;2023-09-18T05:11:31;14.15;;;9.70;;
45039;SDS011;30778;53.574;7.770;2023-09-18T05:13:59;12.68;;;10.70;;
45039;SDS011;30778;53.574;7.770;2023-09-18T05:16:25;12.77;;;9.45;;
45039;SDS011;30778;53.574;7.770;2023-09-18T05:18:51;15.48;;;8.80;;
45039;SDS011;30778;53.574;7.770;2023-09-18T05:21:16;12.90;;;8.80;;
45039;SDS011;30778;53.574;7.770;2023-09-18T05:23:47;12.77;;;9.00;;
45039;SDS011;30778;53.574;7.770;2023-09-18T05:26:19;13.85;;;8.82;;
45039;SDS011;30778;53.574;7.770;2023-09-18T05:28:44;14.27;;;9.65;;
45039;SDS011;30778;53.574;7.770;2023-09-18T05:31:11;16.33;;;10.40;;
45039;SDS011;30778;53.574;7.770;2023-09-18T05:33:40;13.77;;;9.23;;
45039;SDS011;30778;53.574;7.770;2023-09-18T05:36:06;12.13;;;8.35;;
45039;SDS011;30778;53.574;7.770;2023-09-18T05:38:31;12.38;;;8.23;;
45039;SDS011;30778;53.574;7.770;2023-09-18T05:40:57;12.77;;;8.23;;
45039;SDS011;30778;53.574;7.770;2023-09-18T05:43:23;12.80;;;8.48;;
45039;SDS011;30778;53.574;7.770;2023-09-18T05:45:48;17.88;;;8.77;;
45039;SDS011;30778;53.574;7.770;2023-09-18T05:48:14;9.38;;;7.70;;
45039;SDS011;30778;53.574;7.770;2023-09-18T05:50:40;14.48;;;8.32;;
45039;SDS011;30778;53.574;7.770;2023-09-18T05:53:07;12.60;;;8.52;;
45039;SDS011;30778;53.574;7.770;2023-09-18T05:55:33;15.48;;;8.60;;
45039;SDS011;30778;53.574;7.770;2023-09-18T05:58:00;12.65;;;8.10;;
45039;SDS011;30778;53.574;7.770;2023-09-18T06:00:26;12.88;;;7.55;;
45039;SDS011;30778;53.574;7.770;2023-09-18T06:02:52;9.57;;;7.18;;
45039;SDS011;30778;53.574;7.770;2023-09-18T06:05:17;7.63;;;6.32;;
45039;SDS011;30778;53.574;7.770;2023-09-18T06:07:46;12.57;;;7.93;;
45039;SDS011;30778;53.574;7.770;2023-09-18T06:10:13;10.27;;;6.47;;
45039;SDS011;30778;53.574;7.770;2023-09-18T06:12:39;10.60;;;6.80;;
45039;SDS011;30778;53.574;7.770;2023-09-18T06:15:08;13.57;;;6.75;;
45039;SDS011;30778;53.574;7.770;2023-09-18T06:17:36;8.10;;;5.78;;
45039;SDS011;30778;53.574;7.770;2023-09-18T06:20:03;10.23;;;6.30;;
45039;SDS011;30778;53.574;7.770;2023-09-18T06:22:29;9.55;;;8.52;;
45039;SDS011;30778;53.574;7.770;2023-09-18T06:24:55;7.18;;;6.20;;
45039;SDS011;30778;53.574;7.770;2023-09-18T06:27:20;10.85;;;6.28;;
45039;SDS011;30778;53.574;7.770;2023-09-18T06:29:45;7.22;;;6.25;;
45039;SDS011;30778;53.574;7.770;2023-09-18T06:32:11;13.57;;;6.55;;
45039;SDS011;30778;53.574;7.770;2023-09-18T06:34:37;8.20;;;6.22;;
45039;SDS011;30778;53.574;7.770;2023-09-18T06:37:03;13.38;;;6.95;;
45039;SDS011;30778;53.574;7.770;2023-09-18T06:39:29;10.95;;;6.85;;
45039;SDS011;30778;53.574;7.770;2023-09-18T06:41:54;10.10;;;5.95;;
45039;SDS011;30778;53.574;7.770;2023-09-18T06:44:20;8.98;;;5.82;;
45039;SDS011;30778;53.574;7.770;2023-09-18T06:46:48;8.52;;;5.00;;
45039;SDS011;30778;53.574;7.770;2023-09-18T06:49:14;9.00;;;5.88;;
45039;SDS011;30778;53.574;7.770;2023-09-18T06:51:39;8.43;;;5.15;;
45039;SDS011;30778;53.574;7.770;2023-09-18T06:54:05;10.45;;;6.05;;
45039;SDS011;30778;53.574;7.770;2023-09-18T06:56:30;13.13;;;5.88;;
45039;SDS011;30778;53.574;7.770;2023-09-18T06:58:56;7.53;;;5.22;;
45039;SDS011;30778;53.574;7.770;2023-09-18T07:01:21;8.32;;;5.47;;
45039;SDS011;30778;53.574;7.770;2023-09-18T07:03:49;8.32;;;5.82;;
45039;SDS011;30778;53.574;7.770;2023-09-18T07:06:15;6.43;;;5.22;;
45039;SDS011;30778;53.574;7.770;2023-09-18T07:08:44;9.65;;;5.72;;
45039;SDS011;30778;53.574;7.770;2023-09-18T07:11:10;5.45;;;4.95;;
45039;SDS011;30778;53.574;7.770;2023-09-18T07:13:37;5.53;;;4.68;;
45039;SDS011;30778;53.574;7.770;2023-09-18T07:16:06;6.40;;;5.35;;
45039;SDS011;30778;53.574;7.770;2023-09-18T07:18:31;6.72;;;4.68;;
45039;SDS011;30778;53.574;7.770;2023-09-18T07:20:58;9.95;;;5.28;;
45039;SDS011;30778;53.574;7.770;2023-09-18T07:23:23;6.95;;;4.75;;
45039;SDS011;30778;53.574;7.770;2023-09-18T07:25:49;7.30;;;4.63;;
45039;SDS011;30778;53.574;7.770;2023-09-18T07:28:15;8.52;;;4.38;;
45039;SDS011;30778;53.574;7.770;2023-09-18T07:30:45;5.82;;;4.22;;
45039;SDS011;30778;53.574;7.770;2023-09-18T07:33:11;6.93;;;3.90;;
45039;SDS011;30778;53.574;7.770;2023-09-18T07:35:37;9.45;;;4.40;;
45039;SDS011;30778;53.574;7.770;2023-09-18T07:38:03;5.20;;;4.25;;
45039;SDS011;30778;53.574;7.770;2023-09-18T07:40:29;9.05;;;4.68;;
45039;SDS011;30778;53.574;7.770;2023-09-18T07:42:55;6.13;;;4.15;;
45039;SDS011;30778;53.574;7.770;2023-09-18T07:45:22;8.82;;;3.67;;
45039;SDS011;30778;53.574;7.770;2023-09-18T07:47:49;9.48;;;3.55;;
45039;SDS011;30778;53.574;7.770;2023-09-18T07:50:14;8.25;;;4.43;;
45039;SDS011;30778;53.574;7.770;2023-09-18T07:52:40;7.63;;;4.30;;
45039;SDS011;30778;53.574;7.770;2023-09-18T07:55:06;5.90;;;4.07;;
45039;SDS011;30778;53.574;7.770;2023-09-18T07:57:32;11.40;;;3.90;;
45039;SDS011;30778;53.574;7.770;2023-09-18T08:00:00;5.47;;;3.58;;
45039;SDS011;30778;53.574;7.770;2023-09-18T08:02:40;3.63;;;3.20;;
45039;SDS011;30778;53.574;7.770;2023-09-18T08:05:14;5.93;;;3.38;;
45039;SDS011;30778;53.574;7.770;2023-09-18T08:07:40;6.50;;;4.25;;
45039;SDS011;30778;53.574;7.770;2023-09-18T08:10:06;10.95;;;3.92;;
45039;SDS011;30778;53.574;7.770;2023-09-18T08:12:34;6.38;;;3.92;;
45039;SDS011;30778;53.574;7.770;2023-09-18T08:15:00;4.20;;;3.55;;
45039;SDS011;30778;53.574;7.770;2023-09-18T08:17:28;5.55;;;3.90;;
45039;SDS011;30778;53.574;7.770;2023-09-18T08:19:54;9.30;;;4.28;;
45039;SDS011;30778;53.574;7.770;2023-09-18T08:22:19;7.13;;;4.40;;
45039;SDS011;30778;53.574;7.770;2023-09-18T08:24:46;6.18;;;4.07;;
45039;SDS011;30778;53.574;7.770;2023-09-18T08:27:14;7.97;;;4.88;;
45039;SDS011;30778;53.574;7.770;2023-09-18T08:29:42;5.70;;;4.15;;
45039;SDS011;30778;53.574;7.770;2023-09-18T08:32:08;10.35;;;4.57;;
45039;SDS011;30778;53.574;7.770;2023-09-18T08:34:34;6.80;;;4.07;;
45039;SDS011;30778;53.574;7.770;2023-09-18T08:37:02;14.63;;;5.20;;
45039;SDS011;30778;53.574;7.770;2023-09-18T08:39:28;6.13;;;4.43;;
45039;SDS011;30778;53.574;7.770;2023-09-18T08:41:57;7.68;;;3.83;;
45039;SDS011;30778;53.574;7.770;2023-09-18T08:44:25;11.02;;;4.53;;
45039;SDS011;30778;53.574;7.770;2023-09-18T08:46:52;16.13;;;4.65;;
45039;SDS011;30778;53.574;7.770;2023-09-18T08:49:19;10.52;;;4.53;;
45039;SDS011;30778;53.574;7.770;2023-09-18T08:51:46;9.07;;;4.57;;
45039;SDS011;30778;53.574;7.770;2023-09-18T08:54:13;12.20;;;4.90;;
45039;SDS011;30778;53.574;7.770;2023-09-18T08:56:39;7.53;;;5.50;;
45039;SDS011;30778;53.574;7.770;2023-09-18T08:59:04;12.60;;;4.35;;
45039;SDS011;30778;53.574;7.770;2023-09-18T09:01:30;7.00;;;3.97;;
45039;SDS011;30778;53.574;7.770;2023-09-18T09:03:56;9.70;;;4.90;;
45039;SDS011;30778;53.574;7.770;2023-09-18T09:06:25;5.63;;;4.20;;
45039;SDS011;30778;53.574;7.770;2023-09-18T09:08:51;6.28;;;5.03;;
45039;SDS011;30778;53.574;7.770;2023-09-18T09:11:16;9.25;;;5.13;;
45039;SDS011;30778;53.574;7.770;2023-09-18T09:13:44;7.13;;;4.63;;
45039;SDS011;30778;53.574;7.770;2023-09-18T09:16:10;8.27;;;5.47;;
45039;SDS011;30778;53.574;7.770;2023-09-18T09:18:46;6.95;;;5.13;;
45039;SDS011;30778;53.574;7.770;2023-09-18T09:21:13;9.73;;;5.88;;
45039;SDS011;30778;53.574;7.770;2023-09-18T09:23:52;8.35;;;5.20;;
45039;SDS011;30778;53.574;7.770;2023-09-18T09:26:19;9.10;;;5.57;;
45039;SDS011;30778;53.574;7.770;2023-09-18T09:28:46;14.50;;;6.13;;
45039;SDS011;30778;53.574;7.770;2023-09-18T09:31:22;10.93;;;5.18;;
45039;SDS011;30778;53.574;7.770;2023-09-18T09:33:55;10.25;;;6.43;;
45039;SDS011;30778;53.574;7.770;2023-09-18T09:36:22;11.57;;;5.50;;
45039;SDS011;30778;53.574;7.770;2023-09-18T09:38:54;13.25;;;6.45;;
45039;SDS011;30778;53.574;7.770;2023-09-18T09:41:22;8.93;;;5.07;;
45039;SDS011;30778;53.574;7.770;2023-09-18T09:43:47;7.88;;;4.88;;
45039;SDS011;30778;53.574;7.770;2023-09-18T09:46:16;10.95;;;6.07;;
45039;SDS011;30778;53.574;7.770;2023-09-18T09:48:59;10.68;;;6.40;;
45039;SDS011;30778;53.574;7.770;2023-09-18T09:51:26;11.32;;;6.30;;
45039;SDS011;30778;53.574;7.770;2023-09-18T09:53:53;7.95;;;5.75;;
45039;SDS011;30778;53.574;7.770;2023-09-18T09:56:19;10.15;;;5.95;;
45039;SDS011;30778;53.574;7.770;2023-09-18T09:59:02;11.07;;;5.47;;
45039;SDS011;30778;53.574;7.770;2023-09-18T10:01:39;9.68;;;6.13;;
45039;SDS011;30778;53.574;7.770;2023-09-18T10:04:13;8.65;;;5.50;;
45039;SDS011;30778;53.574;7.770;2023-09-18T10:06:43;10.45;;;5.97;;
45039;SDS011;30778;53.574;7.770;2023-09-18T10:09:12;7.60;;;5.20;;
45039;SDS011;30778;53.574;7.770;2023-09-18T10:11:43;9.52;;;6.50;;
45039;SDS011;30778;53.574;7.770;2023-09-18T10:14:22;8.38;;;5.22;;
45039;SDS011;30778;53.574;7.770;2023-09-18T10:17:11;8.43;;;5.45;;
45039;SDS011;30778;53.574;7.770;2023-09-18T10:22:31;7.13;;;4.63;;
45039;SDS011;30778;53.574;7.770;2023-09-18T10:25:24;8.73;;;4.70;;
45039;SDS011;30778;53.574;7.770;2023-09-18T10:27:50;15.13;;;5.40;;
45039;SDS011;30778;53.574;7.770;2023-09-18T10:30:19;13.35;;;5.38;;
45039;SDS011;30778;53.574;7.770;2023-09-18T10:32:48;7.88;;;4.97;;
45039;SDS011;30778;53.574;7.770;2023-09-18T10:35:15;8.98;;;4.82;;
45039;SDS011;30778;53.574;7.770;2023-09-18T10:37:41;8.30;;;4.85;;
45039;SDS011;30778;53.574;7.770;2023-09-18T10:40:09;8.45;;;4.72;;
45039;SDS011;30778;53.574;7.770;2023-09-18T10:42:35;8.57;;;5.22;;
45039;SDS011;30778;53.574;7.770;2023-09-18T10:45:03;8.98;;;5.15;;
45039;SDS011;30778;53.574;7.770;2023-09-18T10:47:30;10.27;;;5.10;;
45039;SDS011;30778;53.574;7.770;2023-09-18T10:49:57;10.75;;;6.00;;
45039;SDS011;30778;53.574;7.770;2023-09-18T10:52:23;8.48;;;5.47;;
45039;SDS011;30778;53.574;7.770;2023-09-18T10:54:48;15.40;;;6.57;;
45039;SDS011;30778;53.574;7.770;2023-09-18T10:57:14;8.23;;;5.72;;
45039;SDS011;30778;53.574;7.770;2023-09-18T10:59:46;7.72;;;5.90;;
45039;SDS011;30778;53.574;7.770;2023-09-18T11:02:15;8.77;;;6.88;;
45039;SDS011;30778;53.574;7.770;2023-09-18T11:04:43;10.90;;;6.65;;
45039;SDS011;30778;53.574;7.770;2023-09-18T11:07:19;9.82;;;7.32;;
45039;SDS011;30778;53.574;7.770;2023-09-18T11:09:45;11.52;;;6.90;;
45039;SDS011;30778;53.574;7.770;2023-09-18T11:12:11;9.95;;;6.35;;
45039;SDS011;30778;53.574;7.770;2023-09-18T11:17:36;7.75;;;6.38;;
45039;SDS011;30778;53.574;7.770;2023-09-18T11:20:18;10.93;;;6.53;;
45039;SDS011;30778;53.574;7.770;2023-09-18T11:25:41;11.43;;;6.43;;
45039;SDS011;30778;53.574;7.770;2023-09-18T11:28:23;8.52;;;6.05;;
45039;SDS011;30778;53.574;7.770;2023-09-18T11:30:56;10.05;;;6.45;;
45039;SDS011;30778;53.574;7.770;2023-09-18T11:33:30;8.32;;;6.60;;
45039;SDS011;30778;53.574;7.770;2023-09-18T11:36:04;7.68;;;5.30;;
45039;SDS011;30778;53.574;7.770;2023-09-18T11:38:33;7.85;;;5.57;;
45039;SDS011;30778;53.574;7.770;2023-09-18T11:41:01;7.25;;;5.30;;
45039;SDS011;30778;53.574;7.770;2023-09-18T11:43:44;7.80;;;5.75;;
45039;SDS011;30778;53.574;7.770;2023-09-18T11:46:10;8.20;;;5.75;;
45039;SDS011;30778;53.574;7.770;2023-09-18T11:48:37;9.00;;;5.35;;
45039;SDS011;30778;53.574;7.770;2023-09-18T11:51:06;8.95;;;6.10;;
45039;SDS011;30778;53.574;7.770;2023-09-18T11:53:36;9.95;;;6.40;;
45039;SDS011;30778;53.574;7.770;2023-09-18T11:56:09;8.02;;;5.10;;
45039;SDS011;30778;53.574;7.770;2023-09-18T11:58:46;9.38;;;5.65;;
45039;SDS011;30778;53.574;7.770;2023-09-18T12:01:15;6.63;;;5.03;;
45039;SDS011;30778;53.574;7.770;2023-09-18T12:03:41;7.47;;;5.72;;
45039;SDS011;30778;53.574;7.770;2023-09-18T12:06:07;12.27;;;4.97;;
45039;SDS011;30778;53.574;7.770;2023-09-18T12:08:37;10.93;;;4.57;;
45039;SDS011;30778;53.574;7.770;2023-09-18T12:11:05;7.80;;;5.70;;
45039;SDS011;30778;53.574;7.770;2023-09-18T12:13:31;7.60;;;5.03;;
45039;SDS011;30778;53.574;7.770;2023-09-18T12:16:04;6.45;;;4.70;;
45039;SDS011;30778;53.574;7.770;2023-09-18T12:18:33;8.82;;;5.80;;
45039;SDS011;30778;53.574;7.770;2023-09-18T12:21:05;6.85;;;4.15;;
45039;SDS011;30778;53.574;7.770;2023-09-18T12:23:38;7.82;;;4.38;;
45039;SDS011;30778;53.574;7.770;2023-09-18T12:26:05;7.80;;;4.85;;
45039;SDS011;30778;53.574;7.770;2023-09-18T12:28:37;4.80;;;4.18;;
45039;SDS011;30778;53.574;7.770;2023-09-18T12:31:03;6.47;;;3.92;;
45039;SDS011;30778;53.574;7.770;2023-09-18T12:33:35;8.18;;;4.60;;
45039;SDS011;30778;53.574;7.770;2023-09-18T12:36:05;4.35;;;3.13;;
45039;SDS011;30778;53.574;7.770;2023-09-18T12:38:32;5.53;;;3.60;;
45039;SDS011;30778;53.574;7.770;2023-09-18T12:41:01;6.65;;;3.00;;
45039;SDS011;30778;53.574;7.770;2023-09-18T12:43:35;4.70;;;2.97;;
45039;SDS011;30778;53.574;7.770;2023-09-18T12:48:31;3.78;;;2.00;;
45039;SDS011;30778;53.574;7.770;2023-09-18T12:51:04;3.85;;;1.77;;
45039;SDS011;30778;53.574;7.770;2023-09-18T12:53:30;3.03;;;2.28;;
45039;SDS011;30778;53.574;7.770;2023-09-18T12:58:32;3.15;;;1.23;;
45039;SDS011;30778;53.574;7.770;2023-09-18T13:00:57;6.38;;;2.35;;
45039;SDS011;30778;53.574;7.770;2023-09-18T13:03:23;4.13;;;2.05;;
45039;SDS011;30778;53.574;7.770;2023-09-18T13:05:48;4.35;;;1.27;;
45039;SDS011;30778;53.574;7.770;2023-09-18T13:08:21;3.65;;;1.45;;
45039;SDS011;30778;53.574;7.770;2023-09-18T13:10:48;6.35;;;2.85;;
45039;SDS011;30778;53.574;7.770;2023-09-18T13:13:20;6.05;;;1.52;;
45039;SDS011;30778;53.574;7.770;2023-09-18T13:15:50;4.38;;;1.33;;
45039;SDS011;30778;53.574;7.770;2023-09-18T13:18:16;2.47;;;1.73;;
45039;SDS011;30778;53.574;7.770;2023-09-18T13:20:42;2.65;;;1.88;;
45039;SDS011;30778;53.574;7.770;2023-09-18T13:23:09;2.33;;;1.15;;
45039;SDS011;30778;53.574;7.770;2023-09-18T13:25:35;3.50;;;1.48;;
45039;SDS011;30778;53.574;7.770;2023-09-18T13:28:07;3.55;;;1.45;;
45039;SDS011;30778;53.574;7.770;2023-09-18T13:30:33;2.90;;;1.73;;
45039;SDS011;30778;53.574;7.770;2023-09-18T13:33:04;2.20;;;1.10;;
45039;SDS011;30778;53.574;7.770;2023-09-18T13:35:37;2.08;;;1.30;;
45039;SDS011;30778;53.574;7.770;2023-09-18T13:38:05;4.25;;;1.30;;
45039;SDS011;30778;53.574;7.770;2023-09-18T13:40:33;5.82;;;1.92;;
45039;SDS011;30778;53.574;7.770;2023-09-18T13:43:01;5.32;;;1.77;;
45039;SDS011;30778;53.574;7.770;2023-09-18T13:45:29;3.58;;;2.08;;
45039;SDS011;30778;53.574;7.770;2023-09-18T13:47:55;1.58;;;0.90;;
45039;SDS011;30778;53.574;7.770;2023-09-18T13:50:21;5.03;;;1.23;;
45039;SDS011;30778;53.574;7.770;2023-09-18T13:52:46;2.25;;;1.55;;
45039;SDS011;30778;53.574;7.770;2023-09-18T13:55:12;3.08;;;1.50;;
45039;SDS011;30778;53.574;7.770;2023-09-18T13:57:37;2.25;;;1.42;;
45039;SDS011;30778;53.574;7.770;2023-09-18T14:00:05;4.22;;;1.77;;
45039;SDS011;30778;53.574;7.770;2023-09-18T14:02:37;6.10;;;1.92;;
45039;SDS011;30778;53.574;7.770;2023-09-18T14:05:04;7.15;;;1.90;;
45039;SDS011;30778;53.574;7.770;2023-09-18T14:07:32;11.45;;;2.53;;
45039;SDS011;30778;53.574;7.770;2023-09-18T14:09:57;7.63;;;2.42;;
45039;SDS011;30778;53.574;7.770;2023-09-18T14:12:23;3.25;;;2.30;;
45039;SDS011;30778;53.574;7.770;2023-09-18T14:14:50;3.90;;;2.80;;
45039;SDS011;30778;53.574;7.770;2023-09-18T14:17:18;6.53;;;3.33;;
45039;SDS011;30778;53.574;7.770;2023-09-18T14:19:46;4.25;;;2.88;;
45039;SDS011;30778;53.574;7.770;2023-09-18T14:22:12;3.80;;;3.25;;
45039;SDS011;30778;53.574;7.770;2023-09-18T14:24:39;4.43;;;2.20;;
45039;SDS011;30778;53.574;7.770;2023-09-18T14:27:05;2.85;;;2.30;;
45039;SDS011;30778;53.574;7.770;2023-09-18T14:29:33;3.88;;;2.35;;
45039;SDS011;30778;53.574;7.770;2023-09-18T14:32:01;2.47;;;2.08;;
45039;SDS011;30778;53.574;7.770;2023-09-18T14:34:29;4.90;;;1.88;;
45039;SDS011;30778;53.574;7.770;2023-09-18T14:36:56;2.75;;;1.40;;
45039;SDS011;30778;53.574;7.770;2023-09-18T14:39:22;3.85;;;1.10;;
45039;SDS011;30778;53.574;7.770;2023-09-18T14:41:48;2.88;;;0.80;;
45039;SDS011;30778;53.574;7.770;2023-09-18T14:44:14;1.52;;;0.63;;
45039;SDS011;30778;53.574;7.770;2023-09-18T14:46:41;2.42;;;0.68;;
45039;SDS011;30778;53.574;7.770;2023-09-18T14:49:06;1.27;;;0.60;;
45039;SDS011;30778;53.574;7.770;2023-09-18T14:51:32;1.38;;;0.80;;
45039;SDS011;30778;53.574;7.770;2023-09-18T14:53:59;2.42;;;0.60;;
45039;SDS011;30778;53.574;7.770;2023-09-18T14:56:26;1.58;;;0.60;;